Wolf, WY (82844)

3:19 PM MDT on August 23, 2014 (GMT -0600)
KWYSHERI2 | Change Station
CLOSE
Current Station
Personal Weather Station
Location: Sheridan, WY
Elevation: 3828 ft
Nearby Weather Stations

Elev 3828 ft 44.81 °N, 106.98 °W | Updated 7 minutes ago

Overcast
Overcast
65.1 °F
Feels Like 65.1 °F
N
1.0
Wind Variable Wind from WNW
Gusts 1.0 mph

Today
High -- | Low -- °F
--% Chance of Precip.
Yesterday
High -- | Low -- °F
Precip. -- in
6:20 AM 8:01 PM
Waning Crescent, 3% visible
Pressure 29.77 in
Visibility 10.0 miles
Clouds Few 1500 ft
Mostly Cloudy 3100 ft
Overcast 6500 ft
Dew Point 52 °F
Humidity 63%
Rainfall 0.18 in
Snow Depth Not available.
UV 2 out of 12
Pollen 1.60 out of 12
Air Quality Not available.
Flu Activity Not available.
METAR KSHR 232053Z AUTO 34016KT 10SM FEW015 BKN031 OVC065 17/12 A2983 RMK AO2 RAB02E14 SLP079 P0000 60000 T01670122 56002

More Conditions Fewer Conditions

Pressure 29.77 in
Visibility 10.0 miles
Clouds Few 1500 ft
Mostly Cloudy 3100 ft
Overcast 6500 ft
Dew Point 52 °F
Humidity 63%
Rainfall 0.18 in
Snow Depth Not available.
UV 2 out of 12
Pollen 1.60 out of 12
Air Quality Not available.
Flu Activity Not available.
METAR KSHR 232053Z AUTO 34016KT 10SM FEW015 BKN031 OVC065 17/12 A2983 RMK AO2 RAB02E14 SLP079 P0000 60000 T01670122 56002

More Conditions Fewer Conditions

10-Day Weather Forecast

Almanac

Astronomy

Aug. 23, 2014 Rise Set
Actual Time 6:20 AM MDT 8:01 PM MDT
Civil Twilight 5:49 AM MDT 8:32 PM MDT
Nautical Twilight 5:11 AM MDT 9:09 PM MDT
Astronomical Twilight 4:30 AM MDT 9:50 PM MDT
Moon 4:37 AM MDT 6:48 PM MDT
Length of Visible Light 14h 42m
Length of Day
13h 40m
Tomorrow will be 2m 54s shorter.
Waning Crescent, 3% of the Moon is Illuminated
Today
Waning Crescent
Aug 25
New
Sep 2
First Quarter
Sep 8
Full
Sep 15
Last Quarter

Today's Extremes

State Highs State Lows

Community

WunderPhotos

Upload Photos

1,746,622 photos uploaded!

WunderBlogs® & News

By Dr. Jeff Masters
Director of Meteorology, Weather Underground
By Kari Strenfel
Meteorologist, Weather Underground
By Christopher C. Burt
Weather Historian, Weather Underground
August 23, 2014
August 23, 2014
August 23, 2014

Nearby

Snow Depth

Station Depth Elevation
Sylvan Lake 0 in 8420 ft
Casper Mountain 1 in 7850 ft
Reno Hill 0 in 8500 ft
Thumb Divide 0 in 7980 ft
Base Camp 0 in 7030 ft

Earthquake Activity

City Distance Mag. Time & Date
No recent earthquake activity has been reported nearby.
Minimum magnitude displayed is 2.5.

Coastal Water Temperatures

Place Temperature
No Stations Reporting

Nearby Weather Stations